Time;durP1;ratioP1;P1;durP2;ratioP2;P2;SDS_P1;SDS_P2;PMS_P1;PMS_P2;Temp;Humidity;BMP_temperature;BMP_pressure;BME280_temperature;BME280_humidity;BME280_pressure;Samples;Min_cycle;Max_cycle;Signal;HPM_P1;HPM_P2
2024/01/23 00:02:02;;;;;;;45.15;18.40;;;;;;;-6.47;100.00;98579.75;5063633;28;20089;-87
2024/01/23 00:04:28;;;;;;;53.63;20.48;;;;;;;-6.39;100.00;98575.56;5054301;28;20041;-87
2024/01/23 00:06:54;;;;;;;61.58;23.55;;;;;;;-6.38;100.00;98566.94;5065119;28;20027;-87
2024/01/23 00:09:19;;;;;;;61.58;21.88;;;;;;;-6.41;100.00;98587.69;5065968;28;20031;-88
2024/01/23 00:11:45;;;;;;;57.25;21.50;;;;;;;-6.63;100.00;98562.06;5071534;28;20051;-88
2024/01/23 00:14:11;;;;;;;48.55;18.52;;;;;;;-6.57;100.00;98587.31;5067176;28;20035;-88
2024/01/23 00:16:36;;;;;;;44.80;20.17;;;;;;;-6.57;100.00;98584.72;5091339;28;20023;-87
2024/01/23 00:19:02;;;;;;;57.00;20.90;;;;;;;-6.60;100.00;98568.22;5077856;28;20024;-88
2024/01/23 00:21:29;;;;;;;52.03;18.85;;;;;;;-6.57;100.00;98577.78;5079168;28;20080;-88
2024/01/23 00:23:54;;;;;;;48.97;17.42;;;;;;;-6.56;100.00;98566.56;5062714;28;20048;-87
2024/01/23 00:26:21;;;;;;;63.00;24.70;;;;;;;-6.52;100.00;98560.53;5078484;28;20059;-87
2024/01/23 00:28:47;;;;;;;65.75;25.98;;;;;;;-6.53;100.00;98565.72;5073393;28;20032;-87
2024/01/23 00:31:13;;;;;;;69.75;25.90;;;;;;;-6.62;100.00;98535.22;5060883;28;20027;-87
2024/01/23 00:33:38;;;;;;;69.22;25.95;;;;;;;-6.52;100.00;98544.09;5082542;28;20031;-86
2024/01/23 00:36:05;;;;;;;75.80;29.67;;;;;;;-6.55;100.00;98546.63;5083155;28;20095;-87
2024/01/23 00:38:30;;;;;;;76.65;28.13;;;;;;;-6.52;100.00;98552.75;5075887;28;20028;-87
2024/01/23 00:40:56;;;;;;;73.38;27.58;;;;;;;-6.60;100.00;98524.00;5062454;28;20021;-86
2024/01/23 00:43:21;;;;;;;61.80;24.88;;;;;;;-6.82;100.00;98536.50;5069269;28;20020;-86
2024/01/23 00:45:47;;;;;;;59.60;22.90;;;;;;;-6.75;100.00;98534.06;5073996;28;20027;-86
2024/01/23 00:48:13;;;;;;;60.88;24.27;;;;;;;-6.88;100.00;98537.25;5067417;28;20480;-86
2024/01/23 00:50:40;;;;;;;61.97;23.83;;;;;;;-6.97;100.00;98547.44;5059874;28;20024;-84
2024/01/23 00:53:05;;;;;;;49.33;20.10;;;;;;;-7.00;100.00;98533.50;5073135;28;20019;-85
2024/01/23 00:55:31;;;;;;;48.78;18.27;;;;;;;-6.90;100.00;98538.06;5085409;28;20407;-87
2024/01/23 00:57:56;;;;;;;50.58;20.85;;;;;;;-7.11;100.00;98532.38;5064259;28;20085;-80
2024/01/23 01:00:22;;;;;;;37.88;16.48;;;;;;;-7.16;100.00;98527.94;5084449;28;20032;-85
2024/01/23 01:02:48;;;;;;;44.92;17.05;;;;;;;-7.18;100.00;98529.66;5076840;28;20035;-86
2024/01/23 01:05:13;;;;;;;46.58;18.38;;;;;;;-7.22;100.00;98516.53;5055654;28;20021;-85
2024/01/23 01:07:39;;;;;;;35.97;15.15;;;;;;;-7.23;100.00;98527.78;5079104;28;20034;-88
2024/01/23 01:10:05;;;;;;;47.75;18.45;;;;;;;-7.41;100.00;98512.63;5063247;28;20039;-85
2024/01/23 01:12:31;;;;;;;30.88;13.95;;;;;;;-7.31;100.00;98519.81;5080154;28;20024;-85
2024/01/23 01:14:56;;;;;;;46.33;17.23;;;;;;;-7.25;100.00;98513.88;5064920;28;20090;-85
2024/01/23 01:17:22;;;;;;;42.97;15.93;;;;;;;-7.27;100.00;98515.56;5085773;28;20020;-85
2024/01/23 01:19:48;;;;;;;53.80;19.15;;;;;;;-7.22;100.00;98520.00;5068324;28;20031;-85
2024/01/23 01:22:14;;;;;;;49.47;20.20;;;;;;;-7.08;100.00;98527.25;5083786;28;20145;-85
2024/01/23 01:24:39;;;;;;;52.53;21.52;;;;;;;-7.10;100.00;98524.59;5071372;28;20461;-85
2024/01/23 01:27:06;;;;;;;47.30;19.20;;;;;;;-7.14;100.00;98515.84;5085506;28;20063;-84
2024/01/23 01:29:31;;;;;;;49.88;20.10;;;;;;;-7.09;100.00;98509.91;5064763;28;20066;-86
2024/01/23 01:31:57;;;;;;;42.15;15.38;;;;;;;-7.11;100.00;98501.19;5093016;28;20036;-86
2024/01/23 01:34:23;;;;;;;39.55;16.67;;;;;;;-7.21;100.00;98488.00;5076768;28;20081;-86
2024/01/23 01:36:48;;;;;;;32.33;14.20;;;;;;;-7.27;100.00;98494.78;5079565;28;20096;-84
2024/01/23 01:39:14;;;;;;;34.33;13.57;;;;;;;-7.43;100.00;98480.56;5065985;28;20036;-84
2024/01/23 01:41:40;;;;;;;40.50;16.98;;;;;;;-7.37;100.00;98492.81;5068591;28;20112;-84
2024/01/23 01:44:07;;;;;;;38.50;17.65;;;;;;;-7.33;100.00;98485.13;5094648;28;20062;-85
2024/01/23 01:46:36;;;;;;;38.08;16.48;;;;;;;-7.43;100.00;98466.69;5069361;28;20020;-85
2024/01/23 01:49:01;;;;;;;36.53;17.50;;;;;;;-7.27;100.00;98498.25;5060918;28;20036;-86
2024/01/23 01:51:28;;;;;;;53.30;19.45;;;;;;;-7.34;100.00;98493.75;5064532;28;20488;-84
2024/01/23 01:53:56;;;;;;;54.75;22.38;;;;;;;-7.36;100.00;98510.16;5088392;28;20024;-85
2024/01/23 01:56:23;;;;;;;50.92;20.20;;;;;;;-7.51;100.00;98473.44;5085171;28;20020;-86
2024/01/23 01:58:49;;;;;;;54.63;20.48;;;;;;;-7.46;100.00;98497.78;5079809;28;20021;-86
2024/01/23 02:01:14;;;;;;;45.05;17.45;;;;;;;-7.53;100.00;98493.28;5089854;28;20032;-86
2024/01/23 02:03:40;;;;;;;46.67;19.70;;;;;;;-7.60;100.00;98478.41;5056393;28;20036;-85
2024/01/23 02:06:06;;;;;;;45.33;18.48;;;;;;;-7.60;100.00;98487.09;5080271;28;20031;-85
2024/01/23 02:08:32;;;;;;;44.58;16.75;;;;;;;-7.75;100.00;98479.78;5065022;28;20198;-85
2024/01/23 02:10:58;;;;;;;56.90;24.23;;;;;;;-7.78;100.00;98473.63;5064685;28;20043;-84
2024/01/23 02:13:24;;;;;;;56.85;21.63;;;;;;;-7.75;100.00;98474.59;5055345;28;20123;-84
2024/01/23 02:15:50;;;;;;;56.40;22.30;;;;;;;-7.84;100.00;98468.28;5055778;28;20036;-84
2024/01/23 02:18:15;;;;;;;46.13;19.33;;;;;;;-7.81;100.00;98473.56;5055523;28;20037;-84
2024/01/23 02:20:41;;;;;;;51.60;19.42;;;;;;;-7.91;100.00;98463.81;5073112;28;20164;-82
2024/01/23 02:23:14;;;;;;;35.30;16.35;;;;;;;-7.90;100.00;98458.66;5091380;28;20036;-84
2024/01/23 02:25:41;;;;;;;47.83;18.77;;;;;;;-7.75;100.00;98471.16;5069604;28;20048;-83
2024/01/23 02:28:07;;;;;;;35.08;16.48;;;;;;;-7.82;100.00;98464.94;5075547;28;20118;-85
2024/01/23 02:30:34;;;;;;;39.25;17.60;;;;;;;-7.85;100.00;98459.66;5073961;28;20040;-85
2024/01/23 02:33:04;;;;;;;43.25;16.92;;;;;;;-7.88;100.00;98445.72;5064019;28;20063;-83
2024/01/23 02:35:30;;;;;;;34.88;15.90;;;;;;;-7.79;100.00;98445.94;5071927;28;20553;-84
2024/01/23 02:37:56;;;;;;;42.22;18.10;;;;;;;-7.87;100.00;98444.88;5075206;28;20028;-84
2024/01/23 02:40:22;;;;;;;42.03;15.95;;;;;;;-7.91;100.00;98438.75;5063786;28;20042;-83
2024/01/23 02:42:48;;;;;;;46.75;18.50;;;;;;;-7.76;100.00;98435.63;5068537;28;20024;-82
2024/01/23 02:45:14;;;;;;;48.05;15.65;;;;;;;-7.82;100.00;98428.59;5068508;28;20023;-83
2024/01/23 02:47:39;;;;;;;39.90;14.80;;;;;;;-7.78;100.00;98422.59;5086886;28;20024;-84
2024/01/23 02:50:05;;;;;;;34.30;15.20;;;;;;;-7.68;100.00;98418.50;5069361;28;20029;-83
2024/01/23 02:52:31;;;;;;;35.42;15.07;;;;;;;-7.71;100.00;98410.66;5060456;28;20035;-83
2024/01/23 02:54:58;;;;;;;29.40;14.07;;;;;;;-7.67;100.00;98415.06;5055067;28;20044;-84
2024/01/23 02:57:25;;;;;;;39.53;16.42;;;;;;;-7.72;100.00;98401.13;5085628;28;20534;-82
2024/01/23 02:59:53;;;;;;;35.05;15.20;;;;;;;-7.76;100.00;98394.09;5067074;28;20066;-83
2024/01/23 03:02:22;;;;;;;45.97;16.85;;;;;;;-7.66;100.00;98395.19;5075024;28;20404;-83
2024/01/23 03:04:48;;;;;;;57.85;21.27;;;;;;;-7.64;100.00;98390.91;5066103;28;20020;-82
2024/01/23 03:07:14;;;;;;;57.78;22.02;;;;;;;-7.67;100.00;98370.94;5086693;28;20057;-85
2024/01/23 03:09:41;;;;;;;51.47;17.85;;;;;;;-7.64;100.00;98383.97;5075252;28;20414;-84
2024/01/23 03:12:18;;;;;;;70.57;26.58;;;;;;;-7.60;100.00;98378.03;5083960;28;20028;-85
2024/01/23 03:14:44;;;;;;;61.72;23.70;;;;;;;-7.64;100.00;98368.41;5082021;28;20024;-84
2024/01/23 03:17:11;;;;;;;56.42;22.17;;;;;;;-7.49;100.00;98378.25;5066367;28;20458;-84
2024/01/23 03:19:36;;;;;;;68.43;24.20;;;;;;;-7.47;100.00;98367.03;5071391;28;20024;-83
2024/01/23 03:22:03;;;;;;;59.10;25.13;;;;;;;-7.44;100.00;98367.09;5067526;28;20020;-83
2024/01/23 03:24:29;;;;;;;68.43;26.10;;;;;;;-7.43;100.00;98353.28;5074513;28;20052;-83
2024/01/23 03:26:55;;;;;;;81.43;29.13;;;;;;;-7.43;100.00;98355.88;5066183;28;20788;-83
2024/01/23 03:29:20;;;;;;;66.28;24.55;;;;;;;-7.66;100.00;98332.88;5088829;28;20487;-84
2024/01/23 03:31:46;;;;;;;48.30;18.25;;;;;;;-7.55;100.00;98337.44;5074264;28;20096;-84
2024/01/23 03:34:12;;;;;;;51.88;18.25;;;;;;;-7.67;100.00;98332.00;5082740;28;20032;-84
2024/01/23 03:36:37;;;;;;;49.55;20.08;;;;;;;-7.73;100.00;98322.34;5054596;28;20021;-84
2024/01/23 03:39:03;;;;;;;59.80;23.90;;;;;;;-7.72;100.00;98307.66;5057966;28;20396;-83
2024/01/23 03:41:29;;;;;;;69.28;23.77;;;;;;;-7.72;100.00;98315.44;5053888;28;20024;-84
2024/01/23 03:43:55;;;;;;;53.75;22.42;;;;;;;-7.82;100.00;98301.41;5056028;28;20024;-85
2024/01/23 03:46:21;;;;;;;75.32;26.58;;;;;;;-7.87;100.00;98307.31;5074292;28;20024;-84
2024/01/23 03:48:46;;;;;;;52.17;20.65;;;;;;;-7.96;100.00;98296.72;5086619;28;20373;-82
2024/01/23 03:51:12;;;;;;;60.33;23.20;;;;;;;-7.87;100.00;98307.31;5071012;28;20032;-83
2024/01/23 03:53:38;;;;;;;45.97;19.20;;;;;;;-7.90;100.00;98295.13;5053669;28;20058;-85
2024/01/23 03:56:04;;;;;;;61.45;21.67;;;;;;;-7.95;100.00;98298.47;5068723;28;20032;-84
2024/01/23 03:58:29;;;;;;;52.13;21.10;;;;;;;-8.06;100.00;98284.41;5074806;28;20024;-84
2024/01/23 04:00:57;;;;;;;54.15;21.13;;;;;;;-8.12;100.00;98290.31;5074487;28;20077;-84
2024/01/23 04:03:23;;;;;;;60.35;21.73;;;;;;;-8.08;100.00;98280.88;5074177;28;20024;-80
2024/01/23 04:05:48;;;;;;;50.60;19.30;;;;;;;-8.12;100.00;98282.53;5069205;28;20030;-80
2024/01/23 04:08:14;;;;;;;63.00;23.75;;;;;;;-8.12;100.00;98266.97;5074391;28;20020;-80
2024/01/23 04:10:40;;;;;;;52.88;22.00;;;;;;;-8.13;100.00;98277.31;5083021;28;20039;-84
2024/01/23 04:13:06;;;;;;;47.92;19.42;;;;;;;-8.07;100.00;98269.66;5090933;28;20074;-83
2024/01/23 04:15:31;;;;;;;65.25;22.92;;;;;;;-8.25;100.00;98268.44;5073451;28;20464;-83
2024/01/23 04:17:57;;;;;;;54.65;21.38;;;;;;;-8.33;100.00;98271.69;5064085;28;20028;-83
2024/01/23 04:20:22;;;;;;;63.10;20.00;;;;;;;-8.29;100.00;98276.13;5070407;28;20028;-86
2024/01/23 04:22:48;;;;;;;50.67;19.80;;;;;;;-8.36;100.00;98269.91;5091038;28;20015;-75
2024/01/23 04:25:14;;;;;;;51.05;20.20;;;;;;;-8.28;100.00;98276.19;5069247;28;20051;-76
2024/01/23 04:27:39;;;;;;;50.25;20.90;;;;;;;-8.35;100.00;98266.50;5058422;28;20170;-76
2024/01/23 04:30:06;;;;;;;51.63;19.23;;;;;;;-8.20;100.00;98259.84;5078397;28;20028;-76
2024/01/23 04:32:31;;;;;;;37.70;15.88;;;;;;;-8.28;100.00;98262.34;5062690;28;20467;-76
2024/01/23 04:34:57;;;;;;;45.95;17.63;;;;;;;-8.35;100.00;98269.09;5064863;28;20048;-75
2024/01/23 04:37:23;;;;;;;42.97;16.83;;;;;;;-8.31;100.00;98263.13;5065679;28;20124;-76
2024/01/23 04:39:49;;;;;;;45.60;17.58;;;;;;;-8.37;100.00;98262.13;5076351;28;20030;-75
2024/01/23 04:42:17;;;;;;;37.03;16.83;;;;;;;-8.38;100.00;98248.28;5059594;28;20042;-76
2024/01/23 04:44:43;;;;;;;41.15;16.08;;;;;;;-8.45;100.00;98243.78;5082490;28;20047;-77
2024/01/23 04:47:09;;;;;;;48.80;17.58;;;;;;;-8.50;100.00;98227.25;5070870;28;20029;-75
2024/01/23 04:49:34;;;;;;;35.55;15.15;;;;;;;-8.46;100.00;98247.19;5067624;28;20031;-75
2024/01/23 04:52:00;;;;;;;47.88;18.33;;;;;;;-8.48;100.00;98229.84;5069311;28;20048;-75
2024/01/23 04:54:26;;;;;;;48.05;20.08;;;;;;;-8.44;100.00;98252.44;5085362;28;20113;-74
2024/01/23 04:56:53;;;;;;;43.42;18.45;;;;;;;-8.61;100.00;98215.75;5052436;28;20385;-75
2024/01/23 04:59:18;;;;;;;38.33;17.08;;;;;;;-8.59;100.00;98240.00;5084436;28;20479;-74
2024/01/23 05:01:44;;;;;;;46.00;16.92;;;;;;;-8.56;100.00;98229.69;5066493;28;20051;-74
2024/01/23 05:04:10;;;;;;;49.80;16.95;;;;;;;-8.58;100.00;98210.63;5078308;28;20029;-74
2024/01/23 05:06:36;;;;;;;43.45;18.08;;;;;;;-8.73;100.00;98191.25;5060971;28;20513;-74
2024/01/23 05:09:02;;;;;;;39.95;18.10;;;;;;;-8.53;100.00;98223.72;5081898;28;20036;-76
2024/01/23 05:11:28;;;;;;;49.92;18.42;;;;;;;-8.48;100.00;98241.13;5062721;28;20032;-75
2024/01/23 05:13:54;;;;;;;32.97;17.38;;;;;;;-8.63;100.00;98219.13;5083762;28;20111;-76
2024/01/23 05:16:20;;;;;;;43.60;17.38;;;;;;;-8.77;100.00;98223.13;5064646;28;20055;-75
2024/01/23 05:18:46;;;;;;;45.30;17.15;;;;;;;-8.72;100.00;98237.06;5056552;28;20419;-81
2024/01/23 05:21:14;;;;;;;53.30;20.50;;;;;;;-8.74;100.00;98224.09;5057702;28;20040;-75
2024/01/23 05:23:40;;;;;;;45.58;19.23;;;;;;;-8.62;100.00;98239.06;5051753;28;20136;-74
2024/01/23 05:26:07;;;;;;;68.07;24.48;;;;;;;-8.84;100.00;98222.09;5076850;28;20095;-74
2024/01/23 05:28:33;;;;;;;55.65;24.38;;;;;;;-8.78;100.00;98227.44;5051634;28;20036;-75
2024/01/23 05:30:58;;;;;;;62.33;25.23;;;;;;;-8.61;100.00;98235.63;5079254;28;20029;-79
2024/01/23 05:33:24;;;;;;;69.43;24.25;;;;;;;-8.57;100.00;98242.63;5058002;28;20036;-75
2024/01/23 05:35:50;;;;;;;62.63;23.90;;;;;;;-8.47;100.00;98248.06;5068895;28;20111;-75
2024/01/23 05:38:15;;;;;;;63.42;26.48;;;;;;;-8.42;100.00;98248.16;5063083;28;20490;-73
2024/01/23 05:40:41;;;;;;;71.20;28.15;;;;;;;-8.50;100.00;98232.44;5075677;28;20028;-75
2024/01/23 05:43:07;;;;;;;86.57;32.85;;;;;;;-8.43;100.00;98230.88;5068017;28;20456;-73
2024/01/23 05:45:32;;;;;;;66.38;26.67;;;;;;;-8.37;100.00;98246.56;5050643;28;20020;-74
2024/01/23 05:47:58;;;;;;;66.97;23.30;;;;;;;-8.52;100.00;98239.28;5085883;28;20032;-75
2024/01/23 05:50:24;;;;;;;60.45;25.00;;;;;;;-8.58;100.00;98239.13;5063815;28;20077;-75
2024/01/23 05:52:49;;;;;;;45.63;19.98;;;;;;;-8.49;100.00;98241.94;5068075;28;20024;-74
2024/01/23 05:55:15;;;;;;;41.33;17.52;;;;;;;-8.58;100.00;98243.47;5072138;28;20020;-75
2024/01/23 05:57:40;;;;;;;36.60;17.02;;;;;;;-8.83;100.00;98244.59;5065696;28;20013;-74
2024/01/23 06:00:09;;;;;;;51.83;22.63;;;;;;;-8.72;100.00;98247.44;5075038;28;20023;-74
2024/01/23 06:02:35;;;;;;;33.15;15.63;;;;;;;-8.77;100.00;98238.69;5075646;28;20024;-77
2024/01/23 06:05:01;;;;;;;37.75;17.08;;;;;;;-8.72;100.00;98248.31;5055000;28;20434;-74
2024/01/23 06:07:27;;;;;;;36.13;15.27;;;;;;;-8.64;100.00;98251.97;5071513;28;20063;-75
2024/01/23 06:09:52;;;;;;;51.17;16.30;;;;;;;-8.57;100.00;98261.63;5064962;28;20015;-74
2024/01/23 06:12:18;;;;;;;38.63;16.13;;;;;;;-8.63;100.00;98264.09;5055235;28;20078;-74
2024/01/23 06:14:44;;;;;;;42.28;16.65;;;;;;;-8.45;100.00;98272.31;5055063;28;20536;-74
2024/01/23 06:17:09;;;;;;;46.08;19.45;;;;;;;-8.45;100.00;98259.34;5055199;28;20031;-74
2024/01/23 06:19:35;;;;;;;59.10;20.55;;;;;;;-8.33;100.00;98274.28;5054802;28;20044;-75
2024/01/23 06:22:01;;;;;;;82.75;27.23;;;;;;;-8.35;100.00;98266.50;5054242;28;20033;-74
2024/01/23 06:24:26;;;;;;;67.63;24.90;;;;;;;-8.40;100.00;98262.94;5078296;28;20066;-75
2024/01/23 06:26:52;;;;;;;56.17;23.65;;;;;;;-8.40;100.00;98268.13;5073754;28;20048;-74
2024/01/23 06:29:17;;;;;;;70.10;27.02;;;;;;;-8.37;100.00;98262.13;5074944;28;20067;-74
2024/01/23 06:31:43;;;;;;;48.10;21.08;;;;;;;-8.29;100.00;98270.94;5057761;28;20085;-75
2024/01/23 06:34:09;;;;;;;55.33;24.17;;;;;;;-8.19;100.00;98277.19;5071177;28;20544;-75
2024/01/23 06:36:36;;;;;;;75.03;29.05;;;;;;;-8.12;100.00;98292.06;5062188;28;20214;-75
2024/01/23 06:39:03;;;;;;;73.50;29.48;;;;;;;-8.06;100.00;98284.41;5065118;28;20492;-75
2024/01/23 06:41:28;;;;;;;77.20;30.88;;;;;;;-7.65;100.00;98299.13;5060733;28;20020;-75
2024/01/23 06:43:54;;;;;;;87.70;35.15;;;;;;;-6.61;100.00;98300.25;5073275;28;20411;-74
2024/01/23 06:46:20;;;;;;;105.32;40.53;;;;;;;-6.08;100.00;98306.34;5067960;28;20466;-74
2024/01/23 06:48:46;;;;;;;90.55;37.58;;;;;;;-5.93;100.00;98295.25;5082939;28;20027;-76
2024/01/23 06:51:11;;;;;;;118.63;43.95;;;;;;;-5.35;100.00;98296.91;5073293;28;20089;-74
2024/01/23 06:53:37;;;;;;;91.80;34.20;;;;;;;-3.97;100.00;98299.97;5073136;28;20028;-74
2024/01/23 06:56:03;;;;;;;173.15;54.15;;;;;;;-2.99;100.00;98283.91;5088800;28;20039;-73
2024/01/23 06:58:29;;;;;;;135.35;45.47;;;;;;;-2.31;100.00;98270.91;5070868;28;20066;-74
2024/01/23 07:00:54;;;;;;;90.72;33.70;;;;;;;-1.89;100.00;98267.41;5087978;28;20077;-75
2024/01/23 07:03:20;;;;;;;136.30;49.03;;;;;;;-1.45;100.00;98266.44;5065621;28;20403;-74
2024/01/23 07:05:46;;;;;;;98.47;36.13;;;;;;;-0.85;100.00;98260.91;5091039;28;20057;-75
2024/01/23 07:08:12;;;;;;;99.00;38.05;;;;;;;-0.23;98.49;98263.09;5073332;28;20035;-73
2024/01/23 07:10:37;;;;;;;111.68;42.65;;;;;;;0.04;89.87;98261.97;5090723;28;20028;-74
2024/01/23 07:13:03;;;;;;;140.52;46.17;;;;;;;0.07;86.71;98271.59;5088915;28;20476;-74
2024/01/23 07:15:29;;;;;;;113.97;41.72;;;;;;;0.85;82.23;98272.53;5083393;28;20041;-73
2024/01/23 07:17:55;;;;;;;77.70;33.05;;;;;;;1.70;75.35;98260.81;5073264;28;20024;-72
2024/01/23 07:20:20;;;;;;;89.13;36.00;;;;;;;1.62;69.80;98261.81;5070601;28;20038;-73
2024/01/23 07:22:46;;;;;;;66.35;28.38;;;;;;;2.04;69.96;98260.25;5086572;28;20108;-73
2024/01/23 07:25:12;;;;;;;73.95;33.30;;;;;;;2.86;66.41;98257.84;5073344;28;20083;-73
2024/01/23 07:27:37;;;;;;;76.22;30.80;;;;;;;3.50;62.12;98263.50;5076153;28;20078;-73
2024/01/23 07:30:05;;;;;;;69.55;30.73;;;;;;;3.74;59.27;98232.97;5063218;28;20082;-73
2024/01/23 07:32:30;;;;;;;60.15;26.85;;;;;;;3.60;58.50;98235.94;5055116;28;20016;-73
2024/01/23 07:34:56;;;;;;;61.97;27.10;;;;;;;4.19;57.16;98265.38;5054980;28;20461;-74
2024/01/23 07:37:44;;;;;;;69.75;31.92;;;;;;;4.62;56.04;98262.47;5061846;28;20024;-74
2024/01/23 07:40:22;;;;;;;87.15;36.70;;;;;;;4.21;56.19;98263.56;5078797;28;20032;-74
2024/01/23 07:43:03;;;;;;;86.10;38.55;;;;;;;4.25;57.42;98244.03;5060259;28;20032;-74
2024/01/23 07:45:34;;;;;;;76.60;35.83;;;;;;;4.32;56.97;98208.53;5070975;28;20046;-75
2024/01/23 07:48:38;;;;;;;73.20;33.60;;;;;;;5.41;55.67;98202.75;5065905;28;20043;-74
2024/01/23 07:51:04;;;;;;;58.63;26.77;;;;;;;5.61;55.44;98265.78;5080258;28;20032;-74
2024/01/23 07:53:32;;;;;;;58.67;27.80;;;;;;;5.96;55.70;98269.13;5082543;28;20032;-73
2024/01/23 07:55:57;;;;;;;122.05;54.60;;;;;;;6.12;54.63;98258.00;5082225;28;20036;-74
2024/01/23 07:58:23;;;;;;;129.40;60.70;;;;;;;5.72;54.33;98264.53;5072522;28;20380;-74
2024/01/23 08:00:49;;;;;;;143.52;61.83;;;;;;;5.84;53.86;98234.97;5078001;28;20038;-73
2024/01/23 08:03:14;;;;;;;143.93;59.78;;;;;;;5.90;54.25;98264.00;5056018;28;20078;-74
2024/01/23 08:05:40;;;;;;;111.22;49.25;;;;;;;6.07;53.28;98265.22;5069874;28;20028;-72
2024/01/23 08:08:06;;;;;;;90.35;39.17;;;;;;;5.02;54.13;98305.53;5052846;28;20098;-72
2024/01/23 08:10:34;;;;;;;89.32;41.47;;;;;;;3.99;57.23;98304.69;5065354;28;20115;-74
2024/01/23 08:13:00;;;;;;;67.43;31.65;;;;;;;2.40;63.97;98321.22;5073159;28;20076;-73
2024/01/23 08:15:25;;;;;;;52.40;24.38;;;;;;;3.18;66.32;98329.41;5059737;28;20447;-74
2024/01/23 08:17:51;;;;;;;55.58;25.90;;;;;;;3.90;63.53;98318.16;5069400;28;20032;-72
2024/01/23 08:20:19;;;;;;;58.40;25.58;;;;;;;2.91;62.42;98320.25;5069671;28;20020;-72
2024/01/23 08:22:45;;;;;;;61.28;26.92;;;;;;;1.69;76.37;98348.72;5069252;28;20041;-72
2024/01/23 08:25:11;;;;;;;53.97;22.42;;;;;;;2.71;75.47;98351.44;5069103;28;20121;-73
2024/01/23 08:27:36;;;;;;;49.50;21.27;;;;;;;3.92;69.37;98343.66;5069444;28;20068;-75
2024/01/23 08:30:02;;;;;;;51.45;20.75;;;;;;;4.70;62.90;98343.53;5075954;28;20038;-74
2024/01/23 08:32:28;;;;;;;43.60;18.48;;;;;;;5.40;59.61;98336.28;5069669;28;20147;-73
2024/01/23 08:34:53;;;;;;;43.42;19.55;;;;;;;4.95;58.57;98327.84;5070548;28;20475;-73
2024/01/23 08:37:19;;;;;;;51.67;21.05;;;;;;;3.65;64.64;98353.09;5070106;28;20024;-73
2024/01/23 08:39:45;;;;;;;52.40;22.83;;;;;;;3.68;69.28;98342.44;5069295;28;20404;-74
2024/01/23 08:42:10;;;;;;;54.08;23.50;;;;;;;4.73;64.88;98342.56;5052313;28;20039;-73
2024/01/23 08:44:36;;;;;;;57.10;23.65;;;;;;;5.52;60.75;98335.91;5052251;28;20448;-74
2024/01/23 08:47:03;;;;;;;59.88;25.35;;;;;;;5.64;59.12;98334.69;5052614;28;20381;-73
2024/01/23 08:49:29;;;;;;;59.88;28.10;;;;;;;5.79;59.33;98340.41;5052253;28;20028;-74
2024/01/23 08:51:55;;;;;;;56.80;24.05;;;;;;;5.58;58.71;98335.75;5052360;28;20036;-73
2024/01/23 08:54:20;;;;;;;59.22;26.73;;;;;;;6.42;56.34;98326.06;5071387;28;20032;-73
2024/01/23 08:56:47;;;;;;;55.90;24.55;;;;;;;7.08;53.98;98323.72;5089182;28;20046;-73
2024/01/23 08:59:14;;;;;;;46.42;20.65;;;;;;;7.16;52.40;98314.63;5072508;28;20081;-72
2024/01/23 09:01:40;;;;;;;51.42;21.33;;;;;;;6.76;53.37;98339.09;5069963;28;20460;-73
2024/01/23 09:04:06;;;;;;;46.63;19.70;;;;;;;7.25;53.39;98322.25;5083258;28;20039;-74
2024/01/23 09:06:31;;;;;;;36.97;16.60;;;;;;;6.14;53.56;98311.91;5081569;28;20098;-73
2024/01/23 09:08:57;;;;;;;35.13;16.30;;;;;;;5.31;58.07;98332.13;5067815;28;20050;-73
2024/01/23 09:11:23;;;;;;;34.78;15.65;;;;;;;6.71;55.90;98317.06;5068834;28;20129;-73
2024/01/23 09:13:48;;;;;;;36.17;17.02;;;;;;;7.53;54.27;98302.56;5082815;28;20028;-72
2024/01/23 09:16:14;;;;;;;33.85;14.43;;;;;;;6.67;54.68;98302.19;5072027;28;20034;-72
2024/01/23 09:18:40;;;;;;;33.90;14.00;;;;;;;7.36;54.02;98297.00;5088585;28;20092;-73
2024/01/23 09:21:08;;;;;;;29.58;14.35;;;;;;;7.63;52.88;98295.06;5090203;28;20028;-73
2024/01/23 09:23:37;;;;;;;30.80;14.65;;;;;;;7.70;53.46;98287.72;5071746;28;20032;-73
2024/01/23 09:26:03;;;;;;;33.22;15.82;;;;;;;7.57;52.33;98279.34;5088972;28;20024;-74
2024/01/23 09:28:29;;;;;;;36.35;15.80;;;;;;;7.92;51.39;98281.50;5088778;28;20035;-73
2024/01/23 09:30:55;;;;;;;37.45;16.85;;;;;;;7.96;51.86;98276.94;5072197;28;20028;-73
2024/01/23 09:33:20;;;;;;;33.63;15.80;;;;;;;8.28;49.65;98263.19;5092739;28;20050;-73
2024/01/23 09:35:46;;;;;;;34.08;16.30;;;;;;;8.36;49.74;98262.88;5093928;28;20020;-74
2024/01/23 09:38:12;;;;;;;38.72;17.55;;;;;;;9.05;48.82;98253.63;5075954;28;20497;-73
2024/01/23 09:40:38;;;;;;;40.67;17.65;;;;;;;9.26;48.57;98248.19;5092592;28;20027;-74
2024/01/23 09:43:04;;;;;;;36.92;17.30;;;;;;;9.50;47.32;98242.69;5092781;28;20024;-74
2024/01/23 09:45:30;;;;;;;40.53;19.05;;;;;;;9.85;47.11;98233.84;5092541;28;20047;-75
2024/01/23 09:47:56;;;;;;;37.50;17.13;;;;;;;9.27;49.27;98241.06;5075475;28;20020;-74
2024/01/23 09:50:26;;;;;;;46.72;19.55;;;;;;;8.22;51.03;98246.53;5092497;28;20035;-73
2024/01/23 09:52:51;;;;;;;41.13;18.35;;;;;;;8.75;50.77;98246.97;5092462;28;20568;-73
2024/01/23 09:55:18;;;;;;;57.35;22.23;;;;;;;8.90;50.00;98236.50;5092470;28;20063;-74
2024/01/23 09:57:44;;;;;;;45.58;20.58;;;;;;;8.60;51.07;98249.38;5092210;28;20059;-74
2024/01/23 10:00:14;;;;;;;45.95;21.90;;;;;;;8.76;49.78;98241.59;5092512;28;20559;-74
2024/01/23 10:02:42;;;;;;;46.65;21.23;;;;;;;9.54;48.83;98230.91;5092099;28;20027;-74
2024/01/23 10:05:12;;;;;;;46.25;22.67;;;;;;;9.82;47.67;98228.66;5093770;28;20116;-73
2024/01/23 10:07:39;;;;;;;46.10;20.85;;;;;;;7.76;48.63;98226.25;5091905;28;20035;-73
2024/01/23 10:10:14;;;;;;;43.85;22.05;;;;;;;7.40;53.48;98233.88;5092084;28;20074;-72
2024/01/23 10:12:45;;;;;;;49.53;24.00;;;;;;;8.59;50.79;98236.97;5091822;28;20024;-74
2024/01/23 10:15:12;;;;;;;42.25;21.58;;;;;;;8.29;49.76;98221.41;5092195;28;20112;-74
2024/01/23 10:17:39;;;;;;;44.47;20.88;;;;;;;7.91;50.47;98221.16;5075296;28;20027;-73
2024/01/23 10:20:05;;;;;;;45.05;21.70;;;;;;;8.19;50.28;98219.09;5071739;28;20031;-73
2024/01/23 10:22:31;;;;;;;49.55;22.42;;;;;;;8.25;50.91;98211.78;5054506;28;20024;-74
2024/01/23 10:24:57;;;;;;;49.75;22.58;;;;;;;8.38;50.84;98210.38;5071473;28;20044;-74
2024/01/23 10:27:23;;;;;;;50.35;23.67;;;;;;;8.10;51.57;98224.81;5054800;28;20032;-74
2024/01/23 10:29:50;;;;;;;51.75;24.35;;;;;;;8.38;49.73;98205.03;5054570;28;20460;-73
2024/01/23 10:32:16;;;;;;;48.55;24.77;;;;;;;7.72;51.39;98204.19;5055077;28;20036;-73
2024/01/23 10:34:42;;;;;;;60.65;27.80;;;;;;;9.34;49.28;98182.91;5071589;28;20403;-74
2024/01/23 10:37:07;;;;;;;58.95;29.35;;;;;;;9.74;48.77;98174.75;5071474;28;20111;-75
2024/01/23 10:39:35;;;;;;;56.47;27.50;;;;;;;9.68;48.35;98181.25;5079706;28;20032;-74
2024/01/23 10:42:01;;;;;;;64.82;31.13;;;;;;;9.80;47.63;98166.44;5091275;28;20039;-74
2024/01/23 10:44:28;;;;;;;52.63;26.85;;;;;;;9.09;50.05;98168.03;5090547;28;20157;-74
2024/01/23 10:46:55;;;;;;;53.00;26.58;;;;;;;8.01;51.33;98187.91;5091198;28;20039;-74
2024/01/23 10:49:22;;;;;;;51.05;24.80;;;;;;;9.11;50.06;98178.63;5091599;28;20028;-74
2024/01/23 10:51:49;;;;;;;61.92;25.55;;;;;;;9.20;49.17;98155.06;5074470;28;20036;-75
2024/01/23 10:54:25;;;;;;;57.20;25.40;;;;;;;10.24;47.73;98150.88;5092705;28;20024;-73
2024/01/23 10:56:55;;;;;;;47.25;23.80;;;;;;;10.54;46.28;98151.97;5091047;28;20016;-73
2024/01/23 10:59:27;;;;;;;56.03;26.60;;;;;;;10.28;47.75;98145.28;5091431;28;20060;-74
2024/01/23 11:02:10;;;;;;;46.75;24.48;;;;;;;11.46;45.29;98129.13;5077197;28;20024;-74
2024/01/23 11:04:36;;;;;;;41.83;21.05;;;;;;;11.14;44.45;98120.19;5090978;28;20452;-74
2024/01/23 11:07:05;;;;;;;33.58;17.75;;;;;;;11.62;43.38;98119.28;5059928;28;20178;-74
2024/01/23 11:09:43;;;;;;;37.92;17.95;;;;;;;11.42;42.42;98113.22;5073379;28;20535;-74
2024/01/23 11:12:19;;;;;;;66.43;31.67;;;;;;;11.63;42.39;98105.75;5091248;28;20110;-74